Time;durP1;ratioP1;P1;durP2;ratioP2;P2;SDS_P1;SDS_P2;PMS_P1;PMS_P2;Temp;Humidity;BMP_temperature;BMP_pressure;BME280_temperature;BME280_humidity;BME280_pressure;Samples;Min_cycle;Max_cycle;Signal;HPM_P1;HPM_P2
2022/08/22 00:00:11;;;;;;;9.48;1.88;;;17.70;99.90;;;;;;5027043;28;20503;-63
2022/08/22 00:02:43;;;;;;;7.50;2.28;;;17.70;99.90;;;;;;5029025;28;20033;-63
2022/08/22 00:05:30;;;;;;;4.57;1.88;;;17.60;99.90;;;;;;5032220;28;20108;-63
2022/08/22 00:08:13;;;;;;;6.45;1.90;;;17.60;99.90;;;;;;5031003;28;20033;-63
2022/08/22 00:11:02;;;;;;;6.40;2.03;;;17.50;99.90;;;;;;5031803;28;20040;-63
2022/08/22 00:13:39;;;;;;;7.82;2.17;;;17.50;99.90;;;;;;5029236;28;20061;-63
2022/08/22 00:16:25;;;;;;;4.80;1.67;;;17.40;99.90;;;;;;5037038;28;20041;-61
2022/08/22 00:19:24;;;;;;;5.97;1.92;;;17.40;99.90;;;;;;5030565;28;20384;-63
2022/08/22 00:22:09;;;;;;;5.25;2.40;;;17.30;99.90;;;;;;5016578;28;20042;-62
2022/08/22 00:24:53;;;;;;;4.53;1.92;;;17.30;99.90;;;;;;5028934;28;20084;-63
2022/08/22 00:27:33;;;;;;;10.43;1.77;;;17.20;99.90;;;;;;5029677;28;20037;-63
2022/08/22 00:30:10;;;;;;;4.40;2.30;;;17.20;99.90;;;;;;5029133;28;20033;-63
2022/08/22 00:33:02;;;;;;;5.70;2.10;;;17.10;99.90;;;;;;5028890;28;20037;-64
2022/08/22 00:35:40;;;;;;;5.70;2.30;;;17.10;99.90;;;;;;5028193;28;20036;-63
2022/08/22 00:38:15;;;;;;;9.10;2.42;;;17.10;99.90;;;;;;5030697;28;20021;-63
2022/08/22 00:40:46;;;;;;;5.85;2.55;;;17.00;99.90;;;;;;5030725;28;20057;-63
2022/08/22 00:43:37;;;;;;;5.30;2.53;;;17.00;99.90;;;;;;5029633;28;20479;-63
2022/08/22 00:46:31;;;;;;;5.53;2.28;;;17.00;99.90;;;;;;5024862;28;20367;-63
2022/08/22 00:49:15;;;;;;;11.40;3.17;;;16.90;99.90;;;;;;5028708;28;20033;-63
2022/08/22 00:51:53;;;;;;;8.00;2.60;;;16.90;99.90;;;;;;5029594;28;20557;-63
2022/08/22 00:54:56;;;;;;;5.20;2.42;;;16.80;99.90;;;;;;5028817;28;20033;-63
2022/08/22 00:57:48;;;;;;;7.10;2.20;;;16.90;99.90;;;;;;5027593;28;20049;-63
2022/08/22 01:00:21;;;;;;;9.98;2.60;;;16.80;99.90;;;;;;5028351;28;20107;-63
2022/08/22 01:02:55;;;;;;;8.13;2.80;;;16.80;99.90;;;;;;5029273;28;20029;-63
2022/08/22 01:05:43;;;;;;;;;;;16.70;99.90;;;;;;5028731;28;20036;-63
2022/08/22 01:08:34;;;;;;;8.98;2.80;;;16.70;99.90;;;;;;5029090;28;19917;-63
2022/08/22 01:11:38;;;;;;;9.52;2.92;;;16.60;99.90;;;;;;5030102;28;20422;-63
2022/08/22 01:14:25;;;;;;;7.35;3.00;;;16.50;99.90;;;;;;5016777;28;20491;-63
2022/08/22 01:16:57;;;;;;;7.85;2.60;;;16.50;99.90;;;;;;5029581;28;20061;-63
2022/08/22 01:19:45;;;;;;;7.35;3.13;;;16.50;99.90;;;;;;5030376;28;20095;-63
2022/08/22 01:22:24;;;;;;;6.70;2.50;;;16.50;99.90;;;;;;5018427;28;20103;-63
2022/08/22 01:25:20;;;;;;;6.95;2.40;;;16.50;99.90;;;;;;5027982;28;20061;-63
2022/08/22 01:28:14;;;;;;;7.10;3.22;;;16.40;99.90;;;;;;5028510;28;20560;-63
2022/08/22 01:31:07;;;;;;;10.25;3.35;;;16.40;99.90;;;;;;5029747;28;20061;-63
2022/08/22 01:34:00;;;;;;;5.03;3.00;;;16.30;99.90;;;;;;5028561;28;20022;-63
2022/08/22 01:36:44;;;;;;;7.78;3.20;;;16.30;99.90;;;;;;5027767;28;20104;-63
2022/08/22 01:39:16;;;;;;;11.10;3.33;;;16.20;99.90;;;;;;5029448;28;20099;-63
2022/08/22 01:41:44;;;;;;;10.90;3.20;;;16.10;99.90;;;;;;5028531;28;20554;-63
2022/08/22 01:45:08;;;;;;;5.72;2.97;;;16.10;99.90;;;;;;5030676;28;20040;-63
2022/08/22 01:47:51;;;;;;;8.23;3.13;;;16.10;99.90;;;;;;4998805;28;20034;-63
2022/08/22 01:50:19;;;;;;;6.90;3.15;;;16.00;99.90;;;;;;5029317;28;20033;-63
2022/08/22 01:52:51;;;;;;;8.40;3.25;;;16.00;99.90;;;;;;5028884;28;20033;-63
2022/08/22 01:55:28;;;;;;;8.88;3.13;;;16.00;99.90;;;;;;5030111;28;20056;-63
2022/08/22 01:58:00;;;;;;;9.98;3.35;;;15.90;99.90;;;;;;5024447;28;20510;-63
2022/08/22 02:00:32;;;;;;;10.45;3.28;;;15.90;99.90;;;;;;5029888;28;20052;-63
2022/08/22 02:03:04;;;;;;;7.00;3.17;;;15.90;99.90;;;;;;5028146;28;20040;-63
2022/08/22 02:05:50;;;;;;;12.65;3.65;;;15.90;99.90;;;;;;5029345;28;20378;-62
2022/08/22 02:08:29;;;;;;;6.57;3.75;;;15.90;99.90;;;;;;5032115;28;20036;-62
2022/08/22 02:11:09;;;;;;;6.90;3.15;;;15.90;99.90;;;;;;5033653;28;20021;-63
2022/08/22 02:13:53;;;;;;;9.90;3.60;;;15.90;99.90;;;;;;5031212;28;20024;-63
2022/08/22 02:16:37;;;;;;;6.47;3.30;;;15.90;99.90;;;;;;5032392;28;20036;-63
2022/08/22 02:19:17;;;;;;;9.32;3.50;;;15.90;99.90;;;;;;5031407;28;20037;-63
2022/08/22 02:21:58;;;;;;;7.13;3.22;;;15.90;99.90;;;;;;5032309;28;20025;-63
2022/08/22 02:24:47;;;;;;;9.77;3.70;;;15.90;99.90;;;;;;5031135;28;20026;-63
2022/08/22 02:27:31;;;;;;;11.40;3.67;;;15.90;99.90;;;;;;5024053;28;20112;-63
2022/08/22 02:30:08;;;;;;;10.77;2.95;;;15.80;99.90;;;;;;5030281;28;20437;-63
2022/08/22 02:32:40;;;;;;;9.20;3.90;;;15.80;99.90;;;;;;5026984;28;20083;-62
2022/08/22 02:35:21;;;;;;;6.43;3.60;;;15.80;99.90;;;;;;5031618;28;20036;-63
2022/08/22 02:38:06;;;;;;;7.93;3.53;;;15.70;99.90;;;;;;5031785;28;20033;-62
2022/08/22 02:41:00;;;;;;;10.35;3.80;;;15.70;99.90;;;;;;5034763;28;20025;-63
2022/08/22 02:43:51;;;;;;;9.90;3.78;;;15.80;99.90;;;;;;5032281;28;20486;-63
2022/08/22 02:46:45;;;;;;;8.57;3.97;;;15.70;99.90;;;;;;5030530;28;20051;-60
2022/08/22 02:49:23;;;;;;;11.07;4.40;;;15.70;99.90;;;;;;5030073;28;20044;-62
2022/08/22 02:52:23;;;;;;;8.13;4.32;;;15.70;99.90;;;;;;5029579;28;20025;-62
2022/08/22 02:55:05;;;;;;;6.82;3.60;;;15.70;99.90;;;;;;5024217;28;20050;-63
2022/08/22 02:57:52;;;;;;;7.22;3.45;;;15.60;99.90;;;;;;5032133;28;20104;-63
2022/08/22 03:00:39;;;;;;;12.77;4.50;;;15.60;99.90;;;;;;5031486;28;20111;-63
2022/08/22 03:03:22;;;;;;;6.53;4.32;;;15.60;99.90;;;;;;5031504;28;20029;-63
2022/08/22 03:05:55;;;;;;;11.77;4.05;;;15.60;99.90;;;;;;5027886;28;20026;-63
2022/08/22 03:08:26;;;;;;;5.82;4.00;;;15.60;99.90;;;;;;5026140;28;20025;-63
2022/08/22 03:11:17;;;;;;;6.88;3.60;;;15.50;99.90;;;;;;5031066;28;20028;-63
2022/08/22 03:14:02;;;;;;;9.95;4.47;;;15.50;99.90;;;;;;5031989;28;20029;-63
2022/08/22 03:16:34;;;;;;;15.52;4.38;;;15.40;99.90;;;;;;5030763;28;20017;-62
2022/08/22 03:19:32;;;;;;;15.27;4.75;;;15.40;99.90;;;;;;5032471;28;20057;-62
2022/08/22 03:22:06;;;;;;;10.30;4.05;;;15.30;99.90;;;;;;5013044;28;20095;-62
2022/08/22 03:24:57;;;;;;;10.82;3.90;;;15.30;99.90;;;;;;5030223;28;20059;-63
2022/08/22 03:27:32;;;;;;;8.45;4.05;;;15.30;99.90;;;;;;5032386;28;20044;-63
2022/08/22 03:30:04;;;;;;;9.75;4.10;;;15.20;99.90;;;;;;5031509;28;20038;-63
2022/08/22 03:32:50;;;;;;;6.15;4.15;;;15.10;99.90;;;;;;5031005;28;20021;-63
2022/08/22 03:35:36;;;;;;;12.63;4.55;;;15.10;99.90;;;;;;5030630;28;20454;-62
2022/08/22 03:38:23;;;;;;;10.18;4.43;;;15.10;99.90;;;;;;5028435;28;20037;-63
2022/08/22 03:41:16;;;;;;;7.32;4.10;;;15.20;99.90;;;;;;5030415;28;20523;-63
2022/08/22 03:44:02;;;;;;;12.10;4.40;;;15.10;99.90;;;;;;5023671;28;20021;-63
2022/08/22 03:46:57;;;;;;;12.43;4.88;;;15.10;99.90;;;;;;5028780;28;20025;-62
2022/08/22 03:49:42;;;;;;;;;;;15.10;99.90;;;;;;5031363;28;20025;-63
2022/08/22 03:52:32;;;;;;;10.52;4.68;;;15.10;99.90;;;;;;5045640;22;19936;-53
2022/08/22 03:55:08;;;;;;;14.13;4.75;;;15.00;99.90;;;;;;5030639;28;20030;-54
2022/08/22 03:57:53;;;;;;;7.43;5.03;;;15.10;99.90;;;;;;5036038;28;20021;-54
2022/08/22 04:00:21;;;;;;;12.05;4.95;;;15.10;99.90;;;;;;5031867;28;20113;-53
2022/08/22 04:03:12;;;;;;;10.93;4.00;;;15.00;99.90;;;;;;5020739;28;20036;-54
2022/08/22 04:06:09;;;;;;;8.05;4.45;;;15.00;99.90;;;;;;5011467;28;20029;-54
2022/08/22 04:08:52;;;;;;;12.65;5.03;;;15.00;99.90;;;;;;5016306;28;20018;-53
2022/08/22 04:11:43;;;;;;;10.48;4.32;;;14.90;99.90;;;;;;5011416;28;20029;-54
2022/08/22 04:14:40;;;;;;;12.48;4.80;;;14.90;99.90;;;;;;5012678;28;20471;-53
2022/08/22 04:17:46;;;;;;;15.25;5.10;;;14.90;99.90;;;;;;5011971;28;20038;-53
2022/08/22 04:20:19;;;;;;;9.05;4.40;;;15.00;99.90;;;;;;5009230;28;20113;-57
2022/08/22 04:23:08;;;;;;;6.65;4.88;;;14.90;99.90;;;;;;5007694;28;20030;-55
2022/08/22 04:25:39;;;;;;;8.13;4.88;;;14.90;99.90;;;;;;5013496;28;20684;-53
2022/08/22 04:28:11;;;;;;;10.75;4.97;;;14.90;99.90;;;;;;5011847;28;20037;-53
2022/08/22 04:31:04;;;;;;;9.50;4.78;;;14.90;99.90;;;;;;5012413;28;20037;-53
2022/08/22 04:33:44;;;;;;;8.95;4.88;;;14.90;99.90;;;;;;5006497;28;20037;-56
2022/08/22 04:36:26;;;;;;;11.80;5.20;;;14.90;99.90;;;;;;5018015;28;20360;-53
2022/08/22 04:39:00;;;;;;;9.75;4.93;;;14.90;99.90;;;;;;5017845;28;20026;-56
2022/08/22 04:41:42;;;;;;;7.82;5.30;;;14.90;99.90;;;;;;5017498;28;20105;-56
2022/08/22 04:44:15;;;;;;;8.43;5.70;;;14.90;99.90;;;;;;5005765;28;20507;-56
2022/08/22 04:46:44;;;;;;;8.23;4.75;;;14.90;99.90;;;;;;5012645;28;20029;-53
2022/08/22 04:49:31;;;;;;;8.80;4.88;;;14.90;99.90;;;;;;5010925;28;20030;-54
2022/08/22 04:52:34;;;;;;;9.95;5.18;;;14.90;99.90;;;;;;5009772;28;20101;-55
2022/08/22 04:55:18;;;;;;;14.02;5.70;;;14.90;99.90;;;;;;5016302;28;20045;-53
2022/08/22 04:57:55;;;;;;;18.17;7.32;;;14.90;99.90;;;;;;5012848;28;20459;-55
2022/08/22 05:00:21;;;;;;;15.02;4.75;;;14.90;99.90;;;;;;5005235;28;20068;-56
2022/08/22 05:02:51;;;;;;;9.13;4.72;;;14.90;99.90;;;;;;5003854;28;20567;-56
2022/08/22 05:05:30;;;;;;;10.68;5.07;;;15.00;99.90;;;;;;5018473;28;20048;-53
2022/08/22 05:07:59;;;;;;;22.92;6.40;;;15.00;99.90;;;;;;5013835;28;20029;-53
2022/08/22 05:10:33;;;;;;;11.10;4.97;;;15.10;99.90;;;;;;5011091;28;20104;-53
2022/08/22 05:13:10;;;;;;;12.70;5.27;;;15.20;99.90;;;;;;5007390;28;20034;-54
2022/08/22 05:15:40;;;;;;;17.38;5.00;;;15.20;99.90;;;;;;5006888;28;20026;-54
2022/08/22 05:18:13;;;;;;;11.30;4.90;;;15.30;99.90;;;;;;5002864;28;20034;-54
2022/08/22 05:20:43;;;;;;;13.20;5.55;;;15.40;99.90;;;;;;5008712;28;20036;-55
2022/08/22 05:23:34;;;;;;;10.77;5.10;;;15.50;99.90;;;;;;5008570;28;20877;-54
2022/08/22 05:26:02;;;;;;;7.85;4.65;;;15.50;99.90;;;;;;5006356;28;20454;-55
2022/08/22 05:28:32;;;;;;;15.07;5.07;;;15.70;99.90;;;;;;5005072;28;20411;-55
2022/08/22 05:30:59;;;;;;;9.68;5.25;;;15.80;99.90;;;;;;5009857;28;20030;-54
2022/08/22 05:33:31;;;;;;;11.00;4.03;;;15.90;99.90;;;;;;5007632;28;20041;-53
2022/08/22 05:36:02;;;;;;;10.38;4.25;;;16.00;99.90;;;;;;5003732;28;20030;-57
2022/08/22 05:38:33;;;;;;;8.48;4.03;;;16.10;99.90;;;;;;5008960;28;20057;-54
2022/08/22 05:41:04;;;;;;;15.05;4.75;;;16.20;99.90;;;;;;5006425;28;20071;-56
2022/08/22 05:43:36;;;;;;;9.18;4.03;;;16.30;99.90;;;;;;5008522;28;20022;-56
2022/08/22 05:46:06;;;;;;;8.70;3.55;;;16.30;99.90;;;;;;5011570;28;20101;-53
2022/08/22 05:48:42;;;;;;;9.68;4.25;;;16.40;99.90;;;;;;5009755;28;20029;-55
2022/08/22 05:51:17;;;;;;;13.02;3.85;;;16.50;99.90;;;;;;5011304;28;20034;-55
2022/08/22 05:53:47;;;;;;;9.85;4.65;;;16.60;99.90;;;;;;5010107;28;20033;-53
2022/08/22 05:56:31;;;;;;;9.35;3.67;;;16.60;99.90;;;;;;5010651;28;20388;-53
2022/08/22 05:59:28;;;;;;;6.13;3.92;;;16.70;99.90;;;;;;5019179;28;20057;-56
2022/08/22 06:02:03;;;;;;;8.60;3.42;;;16.80;99.90;;;;;;4993699;28;20419;-53
2022/08/22 06:04:41;;;;;;;8.25;3.20;;;16.80;99.90;;;;;;5014703;28;20033;-56
2022/08/22 06:07:13;;;;;;;10.00;3.28;;;16.90;99.90;;;;;;5014021;28;20109;-53
2022/08/22 06:09:38;;;;;;;7.03;2.67;;;17.00;99.90;;;;;;5011226;28;20022;-54
2022/08/22 06:12:14;;;;;;;6.50;3.33;;;17.10;99.90;;;;;;5010890;28;20067;-53
2022/08/22 06:14:40;;;;;;;9.57;3.40;;;17.20;99.90;;;;;;5011995;28;20034;-52
2022/08/22 06:17:15;;;;;;;8.52;4.07;;;17.30;99.90;;;;;;5011357;28;20091;-54
2022/08/22 06:19:46;;;;;;;9.02;3.28;;;17.40;99.90;;;;;;5012127;28;20255;-53
2022/08/22 06:22:25;;;;;;;8.38;3.47;;;17.40;99.90;;;;;;5015361;28;20034;-53
2022/08/22 06:24:53;;;;;;;7.00;3.28;;;17.50;99.90;;;;;;5018303;28;20073;-55
2022/08/22 06:27:24;;;;;;;12.30;3.95;;;17.60;99.90;;;;;;5010713;28;20486;-54
2022/08/22 06:29:55;;;;;;;7.30;3.22;;;17.70;99.90;;;;;;5007200;28;20041;-55
2022/08/22 06:32:33;;;;;;;12.63;4.00;;;17.80;99.90;;;;;;5006159;28;20106;-53
2022/08/22 06:35:06;;;;;;;7.72;2.85;;;17.80;99.90;;;;;;5006321;28;20472;-54
2022/08/22 06:37:35;;;;;;;7.43;3.00;;;17.90;99.90;;;;;;5006516;28;20076;-55
2022/08/22 06:40:05;;;;;;;4.78;3.05;;;17.90;99.90;;;;;;5008865;28;20029;-53
2022/08/22 06:42:33;;;;;;;8.63;2.65;;;18.00;99.90;;;;;;5009825;28;20033;-55
2022/08/22 06:45:03;;;;;;;13.15;3.03;;;18.00;99.90;;;;;;5010266;28;20095;-53
2022/08/22 06:47:38;;;;;;;10.45;3.85;;;18.10;99.90;;;;;;5010499;28;20091;-54
2022/08/22 06:50:19;;;;;;;6.75;2.67;;;18.10;99.90;;;;;;5012556;28;20048;-53
2022/08/22 06:53:30;;;;;;;9.85;3.78;;;18.10;99.90;;;;;;5012917;28;20407;-54
2022/08/22 06:56:01;;;;;;;7.07;2.60;;;18.20;99.90;;;;;;5012702;28;20044;-54
2022/08/22 06:58:33;;;;;;;9.48;3.03;;;18.30;99.90;;;;;;5015014;28;20025;-53
2022/08/22 07:01:05;;;;;;;11.38;3.72;;;18.30;99.90;;;;;;5014484;28;20033;-52
2022/08/22 07:03:35;;;;;;;7.35;2.45;;;18.40;99.90;;;;;;5009774;28;20487;-55
2022/08/22 07:06:02;;;;;;;6.40;2.42;;;18.40;99.90;;;;;;5015558;28;20033;-52
2022/08/22 07:08:30;;;;;;;11.65;3.28;;;18.50;99.90;;;;;;5014291;28;20025;-52
2022/08/22 07:11:28;;;;;;;8.88;2.78;;;18.50;99.90;;;;;;5014264;28;20168;-55
2022/08/22 07:14:01;;;;;;;9.93;3.05;;;18.60;99.90;;;;;;5013651;28;20026;-53
2022/08/22 07:16:41;;;;;;;10.98;3.70;;;18.70;99.90;;;;;;5015192;28;20030;-54
2022/08/22 07:19:29;;;;;;;14.98;3.83;;;18.70;99.90;;;;;;5013347;28;20032;-55
2022/08/22 07:21:56;;;;;;;14.43;3.35;;;18.80;99.90;;;;;;5013440;28;20064;-54
2022/08/22 07:24:28;;;;;;;10.60;3.08;;;18.90;99.90;;;;;;5011157;28;20026;-56
2022/08/22 07:27:08;;;;;;;5.82;3.00;;;19.00;99.90;;;;;;5012655;28;20018;-55
2022/08/22 07:30:08;;;;;;;11.65;3.58;;;19.20;99.90;;;;;;5012919;28;20114;-53
2022/08/22 07:32:44;;;;;;;15.15;4.80;;;19.20;99.90;;;;;;5011621;28;20066;-55
2022/08/22 07:35:17;;;;;;;12.55;2.90;;;19.30;99.90;;;;;;5013504;28;20060;-54
2022/08/22 07:38:03;;;;;;;8.30;2.93;;;19.40;99.90;;;;;;5016454;28;20060;-53
2022/08/22 07:40:54;;;;;;;9.00;2.72;;;19.60;99.90;;;;;;5013435;28;20053;-53
2022/08/22 07:43:27;;;;;;;7.68;2.78;;;19.70;99.90;;;;;;5010265;28;20038;-52
2022/08/22 07:46:03;;;;;;;7.78;2.67;;;19.70;99.90;;;;;;5015521;28;20022;-54
2022/08/22 07:48:36;;;;;;;9.77;3.75;;;19.80;99.90;;;;;;5020121;28;20096;-55
2022/08/22 07:51:14;;;;;;;13.80;3.17;;;19.90;99.90;;;;;;5012469;28;20029;-52
2022/08/22 07:53:45;;;;;;;13.57;3.30;;;20.00;99.90;;;;;;5007980;28;20053;-54
2022/08/22 07:56:29;;;;;;;10.32;3.17;;;20.10;99.90;;;;;;5011925;28;20037;-53
2022/08/22 07:59:00;;;;;;;8.30;2.60;;;20.10;99.90;;;;;;5010593;28;20084;-54
2022/08/22 08:01:28;;;;;;;6.03;2.47;;;20.20;99.90;;;;;;5012539;28;20059;-52
2022/08/22 08:04:02;;;;;;;10.38;2.40;;;20.30;99.90;;;;;;5015277;28;20476;-53
2022/08/22 08:06:30;;;;;;;9.35;2.88;;;20.40;99.90;;;;;;5015803;28;20408;-53
2022/08/22 08:08:56;;;;;;;9.48;2.72;;;20.50;99.90;;;;;;5012781;28;20408;-52
2022/08/22 08:11:25;;;;;;;9.15;2.30;;;20.60;99.90;;;;;;5012084;28;20081;-53
2022/08/22 08:14:03;;;;;;;19.08;3.05;;;20.70;99.90;;;;;;5007273;28;20041;-55
2022/08/22 08:16:40;;;;;;;7.38;2.22;;;20.70;99.90;;;;;;5010041;28;20451;-53
2022/08/22 08:19:06;;;;;;;10.27;2.30;;;20.90;99.90;;;;;;5011080;28;20026;-52
2022/08/22 08:21:35;;;;;;;13.45;2.10;;;21.00;99.90;;;;;;5010050;28;20472;-53
2022/08/22 08:24:04;;;;;;;8.38;2.10;;;21.10;99.90;;;;;;5009358;28;20041;-53
2022/08/22 08:26:38;;;;;;;6.90;2.25;;;21.20;99.90;;;;;;5008887;28;20034;-53
2022/08/22 08:29:07;;;;;;;8.20;2.50;;;21.30;99.90;;;;;;5004463;28;20041;-53
2022/08/22 08:31:41;;;;;;;9.25;2.63;;;21.40;99.90;;;;;;5007842;28;20204;-54
2022/08/22 08:34:16;;;;;;;11.95;2.70;;;21.50;99.90;;;;;;5007294;28;20087;-55
2022/08/22 08:36:53;;;;;;;11.68;2.05;;;21.70;99.90;;;;;;5011505;28;20037;-53
2022/08/22 08:39:27;;;;;;;6.70;2.33;;;21.70;99.90;;;;;;5009335;28;20030;-53
2022/08/22 08:42:01;;;;;;;16.92;2.45;;;21.90;99.90;;;;;;5007651;28;20068;-53
2022/08/22 08:45:04;;;;;;;6.72;2.35;;;22.10;99.90;;;;;;5008907;28;20093;-52
2022/08/22 08:47:40;;;;;;;6.70;2.00;;;22.40;99.90;;;;;;5004487;28;20045;-53
2022/08/22 08:50:19;;;;;;;7.57;1.95;;;22.60;99.90;;;;;;5009523;28;20064;-52
2022/08/22 08:53:23;;;;;;;6.38;1.92;;;22.80;99.90;;;;;;5001691;28;20037;-54
2022/08/22 08:56:11;;;;;;;7.20;1.50;;;23.00;99.90;;;;;;5022272;28;20684;-52
2022/08/22 08:58:53;;;;;;;5.40;1.52;;;23.20;99.90;;;;;;5003886;28;20044;-53
2022/08/22 09:01:57;;;;;;;2.53;1.38;;;23.40;99.90;;;;;;5007876;28;20026;-53
2022/08/22 09:05:04;;;;;;;5.57;1.60;;;23.60;99.90;;;;;;5007696;28;20033;-58
2022/08/22 09:07:47;;;;;;;5.32;0.95;;;23.70;99.90;;;;;;5011911;28;20046;-60
2022/08/22 09:10:26;;;;;;;8.35;2.20;;;23.90;99.90;;;;;;5009329;28;20101;-60
2022/08/22 09:13:20;;;;;;;3.70;1.30;;;24.00;99.90;;;;;;5008317;28;20156;-60
2022/08/22 09:16:08;;;;;;;1.80;1.00;;;24.30;99.90;;;;;;5009265;28;20160;-59
2022/08/22 09:18:56;;;;;;;9.60;1.75;;;24.70;99.90;;;;;;5007324;28;20777;-59
2022/08/22 09:22:03;;;;;;;5.95;1.77;;;24.80;99.90;;;;;;5007921;28;20072;-59
2022/08/22 09:24:47;;;;;;;2.17;1.52;;;24.90;99.90;;;;;;5002321;28;20022;-59
2022/08/22 09:27:37;;;;;;;6.30;1.30;;;24.80;99.90;;;;;;5011396;28;20030;-60
2022/08/22 09:30:10;;;;;;;5.95;1.33;;;24.60;99.90;;;;;;5006754;28;20037;-59
2022/08/22 09:32:44;;;;;;;3.47;1.15;;;24.40;99.90;;;;;;5007562;28;20022;-59
2022/08/22 09:35:25;;;;;;;3.90;1.35;;;24.40;99.90;;;;;;5008832;28;20037;-60
2022/08/22 09:38:12;;;;;;;6.25;1.67;;;24.60;99.90;;;;;;5007085;28;20061;-60
2022/08/22 09:41:12;;;;;;;6.68;1.50;;;24.70;99.90;;;;;;5008682;28;20034;-59
2022/08/22 09:43:47;;;;;;;12.27;1.58;;;24.70;99.90;;;;;;5007881;28;20523;-60
2022/08/22 09:46:21;;;;;;;11.18;1.67;;;24.80;99.90;;;;;;5008872;28;20030;-59
2022/08/22 09:49:10;;;;;;;5.43;1.43;;;24.80;99.90;;;;;;5007195;28;20034;-59
2022/08/22 09:51:50;;;;;;;8.07;2.03;;;24.80;99.90;;;;;;5003559;28;20377;-62
2022/08/22 09:54:21;;;;;;;5.03;1.42;;;24.80;99.90;;;;;;5008580;28;20037;-55
2022/08/22 09:57:01;;;;;;;4.82;1.60;;;24.80;99.90;;;;;;5009976;28;20038;-55
2022/08/22 09:59:49;;;;;;;8.73;1.25;;;24.60;99.90;;;;;;5006531;28;20029;-55
2022/08/22 10:02:30;;;;;;;3.22;1.20;;;24.50;99.90;;;;;;5007178;28;20026;-53
2022/08/22 10:05:14;;;;;;;4.90;1.50;;;24.40;99.90;;;;;;5007031;28;20133;-53
2022/08/22 10:08:01;;;;;;;6.22;1.67;;;24.50;99.90;;;;;;5009236;28;20033;-56
2022/08/22 10:10:39;;;;;;;6.47;1.42;;;25.00;99.90;;;;;;5007851;28;20079;-54
2022/08/22 10:13:40;;;;;;;5.63;1.40;;;25.40;99.90;;;;;;5005727;28;20022;-56
2022/08/22 10:16:29;;;;;;;3.50;1.10;;;25.80;99.90;;;;;;5008767;28;20022;-52
2022/08/22 10:19:20;;;;;;;3.95;1.10;;;26.00;99.90;;;;;;5010001;28;20034;-54
2022/08/22 10:21:50;;;;;;;2.88;1.45;;;26.00;99.90;;;;;;5068352;22;20045;-66
2022/08/22 10:24:25;;;;;;;7.47;1.35;;;25.90;99.90;;;;;;5052996;28;20395;-66
2022/08/22 10:26:54;;;;;;;9.55;1.92;;;26.50;99.90;;;;;;5055471;28;20376;-66
2022/08/22 10:30:15;;;;;;;4.10;1.25;;;26.80;99.90;;;;;;5052843;28;20516;-66
2022/08/22 10:33:02;;;;;;;4.53;1.27;;;27.10;99.90;;;;;;4971587;28;20031;-67
2022/08/22 10:35:27;;;;;;;4.97;1.30;;;27.10;99.90;;;;;;5025401;28;20107;-66
2022/08/22 10:38:19;;;;;;;10.73;2.85;;;27.20;99.90;;;;;;5042696;28;20028;-65
2022/08/22 10:41:02;;;;;;;5.30;1.67;;;27.40;99.90;;;;;;5031666;28;20031;-67
2022/08/22 10:43:46;;;;;;;4.65;1.23;;;26.80;99.90;;;;;;5032349;28;20029;-66
2022/08/22 10:46:16;;;;;;;6.78;1.75;;;26.60;99.90;;;;;;5029912;28;20415;-66
2022/08/22 10:48:54;;;;;;;4.18;1.40;;;26.50;99.90;;;;;;5033538;28;20507;-66
2022/08/22 10:51:43;;;;;;;4.15;1.38;;;26.60;99.90;;;;;;5033373;28;20063;-66
2022/08/22 10:54:25;;;;;;;6.32;2.00;;;26.70;99.90;;;;;;5024484;28;20560;-66
2022/08/22 10:57:28;;;;;;;8.32;1.83;;;27.00;99.90;;;;;;5039450;28;20032;-66
2022/08/22 11:00:25;;;;;;;3.83;1.48;;;27.00;99.90;;;;;;5030213;28;20530;-65
2022/08/22 11:03:29;;;;;;;4.30;1.70;;;27.40;99.90;;;;;;5023513;28;20045;-65
2022/08/22 11:06:03;;;;;;;6.50;2.10;;;27.50;99.90;;;;;;5026808;28;20056;-65
2022/08/22 11:08:59;;;;;;;3.75;1.45;;;27.60;99.90;;;;;;5038250;28;20053;-66
2022/08/22 11:11:54;;;;;;;3.97;1.20;;;28.20;99.90;;;;;;5032387;28;20527;-66
2022/08/22 11:14:37;;;;;;;6.13;1.70;;;28.60;99.90;;;;;;5024780;28;20140;-65
2022/08/22 11:17:26;;;;;;;5.00;1.35;;;28.80;99.90;;;;;;5033997;28;20455;-67
2022/08/22 11:20:22;;;;;;;3.83;1.60;;;28.80;99.90;;;;;;5030120;28;20510;-66
2022/08/22 11:23:13;;;;;;;5.18;1.35;;;28.60;99.10;;;;;;5030156;28;20450;-66
2022/08/22 11:26:12;;;;;;;3.20;1.40;;;29.00;98.80;;;;;;5023203;28;20029;-65
2022/08/22 11:28:58;;;;;;;7.93;1.85;;;29.00;98.60;;;;;;5030858;28;20060;-66
2022/08/22 11:31:52;;;;;;;10.50;1.88;;;28.30;97.70;;;;;;5030502;28;20032;-65
2022/08/22 11:34:49;;;;;;;2.25;1.27;;;28.10;97.90;;;;;;5025696;28;20029;-69
2022/08/22 11:37:42;;;;;;;7.10;1.58;;;28.10;97.80;;;;;;5025332;28;20033;-67
2022/08/22 11:40:36;;;;;;;4.18;1.58;;;27.90;98.00;;;;;;5038119;28;20068;-67
2022/08/22 11:43:26;;;;;;;3.22;1.50;;;27.50;99.00;;;;;;5024827;28;20088;-66
2022/08/22 11:45:58;;;;;;;7.43;1.35;;;27.40;99.80;;;;;;5033555;28;20039;-66
2022/08/22 11:48:25;;;;;;;7.68;1.80;;;27.80;99.90;;;;;;5025412;28;20030;-66
2022/08/22 11:51:16;;;;;;;7.30;1.20;;;27.80;99.30;;;;;;5028527;28;20029;-66
2022/08/22 11:53:48;;;;;;;4.55;1.83;;;28.10;99.90;;;;;;5022060;28;20021;-65
2022/08/22 11:56:33;;;;;;;7.35;1.92;;;28.10;98.00;;;;;;5026096;28;20037;-65
2022/08/22 11:59:20;;;;;;;6.55;1.70;;;28.10;98.20;;;;;;5026563;28;20320;-65
2022/08/22 12:01:58;;;;;;;7.28;1.90;;;28.10;99.90;;;;;;5026848;28;20069;-65
2022/08/22 12:04:38;;;;;;;3.42;1.20;;;28.40;98.70;;;;;;5029838;28;20096;-65
2022/08/22 12:07:28;;;;;;;3.15;1.77;;;28.60;97.80;;;;;;5047880;28;20056;-64
2022/08/22 12:10:15;;;;;;;2.97;1.80;;;28.70;95.60;;;;;;5026803;28;20021;-67
2022/08/22 12:12:44;;;;;;;5.78;1.75;;;28.60;95.70;;;;;;5028661;28;20022;-65
2022/08/22 12:15:23;;;;;;;4.40;1.67;;;28.50;96.80;;;;;;5028627;28;20075;-66
2022/08/22 12:17:58;;;;;;;9.10;2.15;;;28.50;96.30;;;;;;5033282;28;20080;-66
2022/08/22 12:20:26;;;;;;;4.10;2.00;;;28.80;96.10;;;;;;5032120;28;20026;-65
2022/08/22 12:23:29;;;;;;;6.22;1.50;;;28.30;94.40;;;;;;5028482;28;20033;-65
2022/08/22 12:26:15;;;;;;;6.00;2.35;;;28.60;96.80;;;;;;5029807;28;20094;-66
2022/08/22 12:29:06;;;;;;;6.35;2.15;;;28.70;96.70;;;;;;5023794;28;20083;-66
2022/08/22 12:31:38;;;;;;;3.20;1.38;;;28.70;97.20;;;;;;5028407;28;20385;-65
2022/08/22 12:34:12;;;;;;;9.57;2.17;;;28.80;97.20;;;;;;5028368;28;20084;-66
2022/08/22 12:36:57;;;;;;;8.10;1.58;;;28.50;95.50;;;;;;5032917;28;20448;-65
2022/08/22 12:40:01;;;;;;;5.03;1.80;;;28.40;95.50;;;;;;5029348;28;20028;-65
2022/08/22 12:42:43;;;;;;;8.73;1.80;;;28.50;96.80;;;;;;5029172;28;20057;-67
2022/08/22 12:45:19;;;;;;;3.05;1.63;;;28.60;93.90;;;;;;5024741;28;20036;-65
2022/08/22 12:48:13;;;;;;;6.15;2.15;;;29.30;93.80;;;;;;5027492;28;20025;-65
2022/08/22 12:50:50;;;;;;;5.55;2.15;;;28.50;92.90;;;;;;5019914;28;20033;-66
2022/08/22 12:53:38;;;;;;;3.72;1.35;;;28.90;93.00;;;;;;5019700;28;20029;-66
2022/08/22 12:56:40;;;;;;;4.00;1.48;;;28.80;93.50;;;;;;5023827;28;20037;-64
2022/08/22 12:59:21;;;;;;;6.63;1.70;;;28.90;91.90;;;;;;5029324;28;20038;-66
2022/08/22 13:01:50;;;;;;;8.75;1.70;;;28.80;92.00;;;;;;5023004;28;20032;-66
2022/08/22 13:04:19;;;;;;;6.15;1.67;;;28.90;92.00;;;;;;5028505;28;20041;-65
2022/08/22 13:06:48;;;;;;;6.03;2.13;;;28.70;91.70;;;;;;5031193;28;20391;-65
2022/08/22 13:09:32;;;;;;;5.43;2.47;;;28.70;92.20;;;;;;5024229;28;20075;-67
2022/08/22 13:12:17;;;;;;;9.48;2.50;;;28.50;92.20;;;;;;5030278;28;20022;-66
2022/08/22 13:14:45;;;;;;;4.75;1.70;;;28.40;91.80;;;;;;5026332;28;20021;-66
2022/08/22 13:17:17;;;;;;;8.32;1.85;;;28.30;92.10;;;;;;5025528;28;20065;-66
2022/08/22 13:20:07;;;;;;;3.28;1.50;;;28.50;92.30;;;;;;5031659;28;20021;-66
2022/08/22 13:22:36;;;;;;;5.78;1.63;;;28.70;92.20;;;;;;5027493;28;20453;-65
2022/08/22 13:25:25;;;;;;;11.75;2.10;;;28.70;91.20;;;;;;5028383;28;20124;-65
2022/08/22 13:27:58;;;;;;;7.57;1.65;;;28.60;91.70;;;;;;5027207;28;20060;-65
2022/08/22 13:30:37;;;;;;;9.10;3.38;;;28.50;91.40;;;;;;5025151;28;20021;-66
2022/08/22 13:33:12;;;;;;;8.15;1.98;;;28.50;91.20;;;;;;5022845;28;20037;-68
2022/08/22 13:35:47;;;;;;;4.60;1.85;;;28.00;91.70;;;;;;5036705;28;20037;-65
2022/08/22 13:38:22;;;;;;;7.38;1.95;;;28.10;92.20;;;;;;5025917;28;20034;-65
2022/08/22 13:40:50;;;;;;;8.35;2.00;;;28.40;91.30;;;;;;5029499;28;20211;-65
2022/08/22 13:43:33;;;;;;;5.13;1.67;;;28.40;91.20;;;;;;5028162;28;20095;-65
2022/08/22 13:46:05;;;;;;;9.32;2.00;;;28.10;92.20;;;;;;5024304;28;20391;-66
2022/08/22 13:48:52;;;;;;;5.05;1.55;;;28.30;91.30;;;;;;5027511;28;20017;-67
2022/08/22 13:51:36;;;;;;;5.03;1.42;;;28.40;91.30;;;;;;5025138;28;20063;-66
2022/08/22 13:54:22;;;;;;;7.10;2.20;;;28.00;90.60;;;;;;5030230;28;20083;-65
2022/08/22 13:57:07;;;;;;;3.40;1.50;;;28.00;92.20;;;;;;5025025;28;20091;-65